PWSweather.com
Personal Weather Stations
Station Observations

KentGB

Lat: 51.355058, Lon: 1.256518

Elevation: 24

Station Type: Davis

http://stnichweather.co.uk

Latest ConditionsUpdated 7:00:03 AM GMT Tuesday, Sep 26, 2017
Currently Today's Max Today's Min Today's Average
Temperature 59.7°F15.4°C 60.2°F15.7°C 58.8°F14.9°C 59.4°F15.2°C
Dew Point 57.6°F14.2°C 57.6°F14.2°C 54.9°F12.7°C 55.6°F13.1°C
Winds Calm Calm Calm NWCalm NW - Calm Calm
Wind Gusts -- -- - -
Humidity 93% 93% 87% 87%
Pressure 30.15 in1021.0 mb 30.15 in1021.0 mb 30.15 in1021.0 mb -
Hour Temp Dew Point Humidity Winds Wind Gusts Pressure Precip Precip Rate Daily Precip Total
07:00 AM 59.7°F15.4°C 57.6°F14.2°C 93% Calm Calm -- 30.15 in1021.0 mb - 0.00 in0.0 mm 0.00 in0.0 mm
06:45 AM 59.2°F15.1°C 57.2°F14.0°C 93% Calm Calm -- 30.15 in1021.0 mb - 0.00 in0.0 mm 0.00 in0.0 mm
06:30 AM 59.0°F15.0°C 55.2°F12.9°C 87% Calm Calm -- 30.15 in1021.0 mb - 0.00 in0.0 mm 0.00 in0.0 mm
06:15 AM 58.8°F14.9°C 54.9°F12.7°C 87% Calm Calm -- 30.15 in1021.0 mb - 0.00 in0.0 mm 0.00 in0.0 mm
06:00 AM 58.8°F14.9°C 55.0°F12.8°C 87% Calm Calm -- 30.15 in1021.0 mb - 0.00 in0.0 mm 0.00 in0.0 mm
05:45 AM 58.9°F14.9°C 55.0°F12.8°C 87% Calm Calm -- 30.15 in1021.0 mb - 0.00 in0.0 mm 0.00 in0.0 mm
05:30 AM 58.8°F14.9°C 55.0°F12.8°C 87% Calm Calm -- 30.15 in1021.0 mb - 0.00 in0.0 mm 0.00 in0.0 mm
05:15 AM 59.0°F15.0°C 55.1°F12.8°C 87% Calm Calm -- 30.15 in1021.0 mb - 0.00 in0.0 mm 0.00 in0.0 mm
05:00 AM 59.0°F15.0°C 55.2°F12.9°C 87% Calm Calm -- 30.15 in1021.0 mb - 0.00 in0.0 mm 0.00 in0.0 mm
04:45 AM 59.0°F15.0°C 55.1°F12.8°C 87% Calm Calm -- 30.15 in1021.0 mb - 0.00 in0.0 mm 0.00 in0.0 mm
04:30 AM 59.1°F15.1°C 55.3°F12.9°C 87% Calm Calm -- 30.15 in1021.0 mb - 0.00 in0.0 mm 0.00 in0.0 mm
04:15 AM 59.0°F15.0°C 55.1°F12.8°C 87% Calm Calm -- 30.15 in1021.0 mb - 0.00 in0.0 mm 0.00 in0.0 mm
04:00 AM 58.9°F14.9°C 55.1°F12.8°C 87% Calm Calm -- 30.15 in1021.0 mb - 0.00 in0.0 mm 0.00 in0.0 mm
03:45 AM 59.1°F15.1°C 55.2°F12.9°C 87% Calm Calm -- 30.15 in1021.0 mb - 0.00 in0.0 mm 0.00 in0.0 mm
03:30 AM 59.2°F15.1°C 55.3°F12.9°C 87% Calm Calm -- 30.15 in1021.0 mb - 0.00 in0.0 mm 0.00 in0.0 mm
03:15 AM 59.0°F15.0°C 55.2°F12.9°C 87% Calm Calm -- 30.15 in1021.0 mb - 0.00 in0.0 mm 0.00 in0.0 mm
03:00 AM 59.0°F15.0°C 55.2°F12.9°C 87% Calm Calm -- 30.15 in1021.0 mb - 0.00 in0.0 mm 0.00 in0.0 mm
02:45 AM 59.4°F15.2°C 55.5°F13.1°C 87% Calm Calm -- 30.15 in1021.0 mb - 0.00 in0.0 mm 0.00 in0.0 mm
02:30 AM 59.3°F15.2°C 55.5°F13.1°C 87% Calm Calm -- 30.15 in1021.0 mb - 0.00 in0.0 mm 0.00 in0.0 mm
02:15 AM 59.6°F15.3°C 55.7°F13.2°C 87% Calm Calm -- 30.15 in1021.0 mb - 0.00 in0.0 mm 0.00 in0.0 mm
02:00 AM 59.9°F15.5°C 56.0°F13.3°C 87% Calm Calm -- 30.15 in1021.0 mb - 0.00 in0.0 mm 0.00 in0.0 mm
01:45 AM 60.0°F15.6°C 56.1°F13.4°C 87% Calm Calm -- 30.15 in1021.0 mb - 0.00 in0.0 mm 0.00 in0.0 mm
01:30 AM 60.0°F15.6°C 56.2°F13.4°C 87% Calm Calm -- 30.15 in1021.0 mb - 0.00 in0.0 mm 0.00 in0.0 mm
01:15 AM 59.8°F15.4°C 55.9°F13.3°C 87% Calm Calm -- 30.15 in1021.0 mb - 0.00 in0.0 mm 0.00 in0.0 mm
01:00 AM 60.0°F15.6°C 56.2°F13.4°C 87% Calm Calm -- 30.15 in1021.0 mb - 0.00 in0.0 mm 0.00 in0.0 mm
12:45 AM 60.0°F15.6°C 56.1°F13.4°C 87% Calm Calm -- 30.15 in1021.0 mb - 0.00 in0.0 mm 0.00 in0.0 mm
12:30 AM 60.0°F15.6°C 56.1°F13.4°C 87% Calm Calm -- 30.15 in1021.0 mb - 0.00 in0.0 mm 0.00 in0.0 mm
12:15 AM 59.9°F15.5°C 56.0°F13.3°C 87% Calm Calm -- 30.15 in1021.0 mb - 0.00 in0.0 mm 0.00 in0.0 mm
12:00 AM 60.2°F15.7°C 56.3°F13.5°C 87% Calm Calm -- 30.15 in1021.0 mb - 0.00 in0.0 mm 0.00 in0.0 mm